sensor_id;sensor_type;location;lat;lon;timestamp;P1;durP1;ratioP1;P2;durP2;ratioP2
62479;SDS011;48526;48.846;2.322;2022-09-03T00:01:18;9.25;;;9.00;;
62479;SDS011;48526;48.846;2.322;2022-09-03T00:03:56;8.00;;;8.00;;
62479;SDS011;48526;48.846;2.322;2022-09-03T00:06:43;8.50;;;7.50;;
62479;SDS011;48526;48.846;2.322;2022-09-03T00:12:04;7.00;;;7.00;;
62479;SDS011;48526;48.846;2.322;2022-09-03T00:14:54;8.25;;;8.25;;
62479;SDS011;48526;48.846;2.322;2022-09-03T00:17:29;10.00;;;7.75;;
62479;SDS011;48526;48.846;2.322;2022-09-03T00:20:05;9.50;;;7.50;;
62479;SDS011;48526;48.846;2.322;2022-09-03T00:22:33;8.50;;;8.50;;
62479;SDS011;48526;48.846;2.322;2022-09-03T00:25:05;9.00;;;9.00;;
62479;SDS011;48526;48.846;2.322;2022-09-03T00:27:36;10.75;;;10.00;;
62479;SDS011;48526;48.846;2.322;2022-09-03T00:30:04;8.50;;;8.50;;
62479;SDS011;48526;48.846;2.322;2022-09-03T00:32:36;7.50;;;7.00;;
62479;SDS011;48526;48.846;2.322;2022-09-03T00:35:03;8.00;;;7.00;;
62479;SDS011;48526;48.846;2.322;2022-09-03T00:37:35;8.50;;;7.25;;
62479;SDS011;48526;48.846;2.322;2022-09-03T00:40:00;10.25;;;7.25;;
62479;SDS011;48526;48.846;2.322;2022-09-03T00:53:05;10.25;;;8.25;;
62479;SDS011;48526;48.846;2.322;2022-09-03T01:01:05;8.00;;;8.00;;
62479;SDS011;48526;48.846;2.322;2022-09-03T01:03:43;7.00;;;7.00;;
62479;SDS011;48526;48.846;2.322;2022-09-03T01:06:22;6.75;;;5.50;;
62479;SDS011;48526;48.846;2.322;2022-09-03T01:17:29;5.75;;;5.75;;
62479;SDS011;48526;48.846;2.322;2022-09-03T01:30:36;7.00;;;7.00;;
62479;SDS011;48526;48.846;2.322;2022-09-03T01:33:11;8.00;;;7.00;;
62479;SDS011;48526;48.846;2.322;2022-09-03T01:36:15;9.25;;;7.00;;
62479;SDS011;48526;48.846;2.322;2022-09-03T01:38:47;9.75;;;8.75;;
62479;SDS011;48526;48.846;2.322;2022-09-03T01:49:40;5.00;;;5.00;;
62479;SDS011;48526;48.846;2.322;2022-09-03T01:52:15;7.00;;;7.00;;
62479;SDS011;48526;48.846;2.322;2022-09-03T02:00:20;10.00;;;8.25;;
62479;SDS011;48526;48.846;2.322;2022-09-03T02:02:47;8.75;;;8.25;;
62479;SDS011;48526;48.846;2.322;2022-09-03T02:07:49;6.25;;;6.25;;
62479;SDS011;48526;48.846;2.322;2022-09-03T02:12:56;10.75;;;9.00;;
62479;SDS011;48526;48.846;2.322;2022-09-03T02:15:29;7.00;;;7.00;;
62479;SDS011;48526;48.846;2.322;2022-09-03T02:17:57;7.75;;;7.50;;
62479;SDS011;48526;48.846;2.322;2022-09-03T02:20:26;7.00;;;7.00;;
62479;SDS011;48526;48.846;2.322;2022-09-03T02:22:53;5.25;;;5.25;;
62479;SDS011;48526;48.846;2.322;2022-09-03T02:25:19;9.25;;;7.50;;
62479;SDS011;48526;48.846;2.322;2022-09-03T02:27:47;7.25;;;6.75;;
62479;SDS011;48526;48.846;2.322;2022-09-03T02:30:13;10.50;;;9.25;;
62479;SDS011;48526;48.846;2.322;2022-09-03T02:32:39;8.75;;;8.75;;
62479;SDS011;48526;48.846;2.322;2022-09-03T02:35:04;7.75;;;6.75;;
62479;SDS011;48526;48.846;2.322;2022-09-03T02:37:30;10.25;;;5.75;;
62479;SDS011;48526;48.846;2.322;2022-09-03T02:39:56;8.00;;;8.00;;
62479;SDS011;48526;48.846;2.322;2022-09-03T02:42:21;11.50;;;9.75;;
62479;SDS011;48526;48.846;2.322;2022-09-03T02:44:47;8.00;;;8.00;;
62479;SDS011;48526;48.846;2.322;2022-09-03T02:47:18;8.00;;;7.00;;
62479;SDS011;48526;48.846;2.322;2022-09-03T02:49:45;9.00;;;9.00;;
62479;SDS011;48526;48.846;2.322;2022-09-03T02:52:14;10.75;;;9.50;;
62479;SDS011;48526;48.846;2.322;2022-09-03T02:54:40;9.75;;;8.75;;
62479;SDS011;48526;48.846;2.322;2022-09-03T02:57:09;8.75;;;7.50;;
62479;SDS011;48526;48.846;2.322;2022-09-03T02:59:38;9.75;;;9.75;;
62479;SDS011;48526;48.846;2.322;2022-09-03T03:02:04;9.75;;;9.75;;
62479;SDS011;48526;48.846;2.322;2022-09-03T03:04:30;9.00;;;8.50;;
62479;SDS011;48526;48.846;2.322;2022-09-03T03:06:56;13.00;;;9.75;;
62479;SDS011;48526;48.846;2.322;2022-09-03T03:09:21;9.75;;;8.75;;
62479;SDS011;48526;48.846;2.322;2022-09-03T03:11:47;12.00;;;10.00;;
62479;SDS011;48526;48.846;2.322;2022-09-03T03:14:14;10.75;;;9.75;;
62479;SDS011;48526;48.846;2.322;2022-09-03T03:16:40;9.50;;;8.50;;
62479;SDS011;48526;48.846;2.322;2022-09-03T03:19:05;12.00;;;11.00;;
62479;SDS011;48526;48.846;2.322;2022-09-03T03:21:30;9.50;;;9.50;;
62479;SDS011;48526;48.846;2.322;2022-09-03T03:23:56;10.25;;;9.00;;
62479;SDS011;48526;48.846;2.322;2022-09-03T03:26:21;10.50;;;9.50;;
62479;SDS011;48526;48.846;2.322;2022-09-03T03:28:48;8.50;;;8.50;;
62479;SDS011;48526;48.846;2.322;2022-09-03T03:31:16;14.00;;;12.00;;
62479;SDS011;48526;48.846;2.322;2022-09-03T03:33:51;11.75;;;11.75;;
62479;SDS011;48526;48.846;2.322;2022-09-03T03:36:26;12.25;;;11.75;;
62479;SDS011;48526;48.846;2.322;2022-09-03T03:38:54;10.75;;;10.00;;
62479;SDS011;48526;48.846;2.322;2022-09-03T03:41:22;12.00;;;9.50;;
62479;SDS011;48526;48.846;2.322;2022-09-03T03:43:52;12.75;;;12.00;;
62479;SDS011;48526;48.846;2.322;2022-09-03T03:46:21;9.75;;;9.75;;
62479;SDS011;48526;48.846;2.322;2022-09-03T03:48:48;12.25;;;11.00;;
62479;SDS011;48526;48.846;2.322;2022-09-03T03:51:14;12.25;;;10.75;;
62479;SDS011;48526;48.846;2.322;2022-09-03T03:53:39;11.75;;;11.75;;
62479;SDS011;48526;48.846;2.322;2022-09-03T03:56:06;10.00;;;10.00;;
62479;SDS011;48526;48.846;2.322;2022-09-03T03:58:36;11.25;;;11.25;;
62479;SDS011;48526;48.846;2.322;2022-09-03T04:01:03;10.25;;;10.25;;
62479;SDS011;48526;48.846;2.322;2022-09-03T04:03:29;12.00;;;11.00;;
62479;SDS011;48526;48.846;2.322;2022-09-03T04:05:57;9.50;;;9.00;;
62479;SDS011;48526;48.846;2.322;2022-09-03T04:08:24;11.75;;;11.75;;
62479;SDS011;48526;48.846;2.322;2022-09-03T04:10:50;14.25;;;11.25;;
62479;SDS011;48526;48.846;2.322;2022-09-03T04:13:16;11.25;;;9.00;;
62479;SDS011;48526;48.846;2.322;2022-09-03T04:15:41;11.00;;;10.75;;
62479;SDS011;48526;48.846;2.322;2022-09-03T04:18:07;12.75;;;12.00;;
62479;SDS011;48526;48.846;2.322;2022-09-03T04:20:32;12.75;;;12.00;;
62479;SDS011;48526;48.846;2.322;2022-09-03T04:22:59;10.75;;;8.75;;
62479;SDS011;48526;48.846;2.322;2022-09-03T04:25:25;13.25;;;10.75;;
62479;SDS011;48526;48.846;2.322;2022-09-03T04:27:51;12.50;;;11.50;;
62479;SDS011;48526;48.846;2.322;2022-09-03T04:30:16;10.25;;;10.25;;
62479;SDS011;48526;48.846;2.322;2022-09-03T04:32:42;15.25;;;11.00;;
62479;SDS011;48526;48.846;2.322;2022-09-03T04:35:23;10.75;;;10.00;;
62479;SDS011;48526;48.846;2.322;2022-09-03T04:37:50;10.25;;;10.25;;
62479;SDS011;48526;48.846;2.322;2022-09-03T04:40:16;12.00;;;12.00;;
62479;SDS011;48526;48.846;2.322;2022-09-03T04:42:41;12.50;;;11.75;;
62479;SDS011;48526;48.846;2.322;2022-09-03T04:45:07;11.50;;;10.75;;
62479;SDS011;48526;48.846;2.322;2022-09-03T04:47:33;10.00;;;10.00;;
62479;SDS011;48526;48.846;2.322;2022-09-03T04:50:00;9.75;;;8.25;;
62479;SDS011;48526;48.846;2.322;2022-09-03T04:52:27;9.50;;;8.75;;
62479;SDS011;48526;48.846;2.322;2022-09-03T04:54:55;9.75;;;8.25;;
62479;SDS011;48526;48.846;2.322;2022-09-03T04:57:20;11.00;;;10.75;;
62479;SDS011;48526;48.846;2.322;2022-09-03T04:59:46;12.00;;;10.50;;
62479;SDS011;48526;48.846;2.322;2022-09-03T05:02:12;13.25;;;12.25;;
62479;SDS011;48526;48.846;2.322;2022-09-03T05:04:39;11.75;;;9.75;;
62479;SDS011;48526;48.846;2.322;2022-09-03T05:07:05;13.00;;;10.75;;
62479;SDS011;48526;48.846;2.322;2022-09-03T05:09:30;9.25;;;9.25;;
62479;SDS011;48526;48.846;2.322;2022-09-03T05:11:55;10.75;;;10.25;;
62479;SDS011;48526;48.846;2.322;2022-09-03T05:14:21;11.50;;;9.25;;
62479;SDS011;48526;48.846;2.322;2022-09-03T05:16:47;10.50;;;10.00;;
62479;SDS011;48526;48.846;2.322;2022-09-03T05:19:12;12.50;;;11.00;;
62479;SDS011;48526;48.846;2.322;2022-09-03T05:21:38;10.50;;;9.00;;
62479;SDS011;48526;48.846;2.322;2022-09-03T05:24:03;9.25;;;9.00;;
62479;SDS011;48526;48.846;2.322;2022-09-03T05:26:32;10.00;;;10.00;;
62479;SDS011;48526;48.846;2.322;2022-09-03T05:29:01;12.00;;;11.00;;
62479;SDS011;48526;48.846;2.322;2022-09-03T05:31:31;10.75;;;10.50;;
62479;SDS011;48526;48.846;2.322;2022-09-03T05:33:58;9.25;;;9.00;;
62479;SDS011;48526;48.846;2.322;2022-09-03T05:36:26;8.50;;;8.50;;
62479;SDS011;48526;48.846;2.322;2022-09-03T05:38:53;9.50;;;9.50;;
62479;SDS011;48526;48.846;2.322;2022-09-03T05:41:18;10.50;;;9.00;;
62479;SDS011;48526;48.846;2.322;2022-09-03T05:43:46;8.75;;;8.75;;
62479;SDS011;48526;48.846;2.322;2022-09-03T05:46:33;11.75;;;10.00;;
62479;SDS011;48526;48.846;2.322;2022-09-03T05:49:02;8.25;;;8.25;;
62479;SDS011;48526;48.846;2.322;2022-09-03T05:51:29;10.50;;;10.00;;
62479;SDS011;48526;48.846;2.322;2022-09-03T05:53:55;13.25;;;11.25;;
62479;SDS011;48526;48.846;2.322;2022-09-03T05:56:22;11.50;;;10.75;;
62479;SDS011;48526;48.846;2.322;2022-09-03T05:58:52;10.75;;;10.00;;
62479;SDS011;48526;48.846;2.322;2022-09-03T06:01:23;11.00;;;10.00;;
62479;SDS011;48526;48.846;2.322;2022-09-03T06:04:00;12.50;;;9.75;;
62479;SDS011;48526;48.846;2.322;2022-09-03T06:06:26;12.00;;;12.00;;
62479;SDS011;48526;48.846;2.322;2022-09-03T06:08:53;10.00;;;9.25;;
62479;SDS011;48526;48.846;2.322;2022-09-03T06:11:20;10.25;;;9.75;;
62479;SDS011;48526;48.846;2.322;2022-09-03T06:13:47;10.75;;;9.50;;
62479;SDS011;48526;48.846;2.322;2022-09-03T06:16:12;10.00;;;10.00;;
62479;SDS011;48526;48.846;2.322;2022-09-03T06:18:38;12.00;;;9.50;;
62479;SDS011;48526;48.846;2.322;2022-09-03T06:21:05;14.25;;;14.25;;
62479;SDS011;48526;48.846;2.322;2022-09-03T06:23:32;10.50;;;10.50;;
62479;SDS011;48526;48.846;2.322;2022-09-03T06:28:33;11.75;;;11.75;;
62479;SDS011;48526;48.846;2.322;2022-09-03T06:31:00;12.50;;;10.50;;
62479;SDS011;48526;48.846;2.322;2022-09-03T06:33:27;12.00;;;10.75;;
62479;SDS011;48526;48.846;2.322;2022-09-03T06:35:56;11.50;;;11.50;;
62479;SDS011;48526;48.846;2.322;2022-09-03T06:38:26;13.00;;;10.50;;
62479;SDS011;48526;48.846;2.322;2022-09-03T06:40:54;12.00;;;12.00;;
62479;SDS011;48526;48.846;2.322;2022-09-03T06:43:20;10.75;;;10.50;;
62479;SDS011;48526;48.846;2.322;2022-09-03T06:45:56;13.00;;;11.50;;
62479;SDS011;48526;48.846;2.322;2022-09-03T06:48:26;12.25;;;11.50;;
62479;SDS011;48526;48.846;2.322;2022-09-03T06:50:59;14.00;;;13.00;;
62479;SDS011;48526;48.846;2.322;2022-09-03T06:53:27;12.00;;;11.00;;
62479;SDS011;48526;48.846;2.322;2022-09-03T06:55:55;16.00;;;13.75;;
62479;SDS011;48526;48.846;2.322;2022-09-03T06:58:22;14.00;;;13.00;;
62479;SDS011;48526;48.846;2.322;2022-09-03T07:00:48;18.50;;;14.75;;
62479;SDS011;48526;48.846;2.322;2022-09-03T07:03:16;11.50;;;10.25;;
62479;SDS011;48526;48.846;2.322;2022-09-03T07:05:43;13.00;;;10.75;;
62479;SDS011;48526;48.846;2.322;2022-09-03T07:08:09;13.00;;;10.75;;
62479;SDS011;48526;48.846;2.322;2022-09-03T07:10:38;14.50;;;13.50;;
62479;SDS011;48526;48.846;2.322;2022-09-03T07:13:03;14.50;;;12.50;;
62479;SDS011;48526;48.846;2.322;2022-09-03T07:15:30;13.00;;;10.75;;
62479;SDS011;48526;48.846;2.322;2022-09-03T07:17:56;13.00;;;11.25;;
62479;SDS011;48526;48.846;2.322;2022-09-03T07:20:22;14.75;;;13.25;;
62479;SDS011;48526;48.846;2.322;2022-09-03T07:22:54;12.75;;;12.75;;
62479;SDS011;48526;48.846;2.322;2022-09-03T07:25:20;12.25;;;12.00;;
62479;SDS011;48526;48.846;2.322;2022-09-03T07:27:46;9.00;;;9.00;;
62479;SDS011;48526;48.846;2.322;2022-09-03T07:30:15;14.50;;;10.00;;
62479;SDS011;48526;48.846;2.322;2022-09-03T07:32:40;13.00;;;10.75;;
62479;SDS011;48526;48.846;2.322;2022-09-03T07:35:06;12.50;;;11.50;;
62479;SDS011;48526;48.846;2.322;2022-09-03T07:37:32;13.00;;;11.75;;
62479;SDS011;48526;48.846;2.322;2022-09-03T07:40:00;14.00;;;12.00;;
62479;SDS011;48526;48.846;2.322;2022-09-03T07:42:32;8.50;;;8.25;;
62479;SDS011;48526;48.846;2.322;2022-09-03T07:45:01;10.00;;;9.75;;
62479;SDS011;48526;48.846;2.322;2022-09-03T07:47:30;14.25;;;10.75;;
62479;SDS011;48526;48.846;2.322;2022-09-03T07:49:56;10.75;;;9.25;;
62479;SDS011;48526;48.846;2.322;2022-09-03T07:52:21;10.25;;;10.00;;
62479;SDS011;48526;48.846;2.322;2022-09-03T07:54:47;11.50;;;8.50;;
62479;SDS011;48526;48.846;2.322;2022-09-03T07:57:12;10.25;;;9.25;;
62479;SDS011;48526;48.846;2.322;2022-09-03T07:59:37;8.00;;;8.00;;
62479;SDS011;48526;48.846;2.322;2022-09-03T08:02:03;8.00;;;8.00;;
62479;SDS011;48526;48.846;2.322;2022-09-03T08:04:29;14.75;;;11.00;;
62479;SDS011;48526;48.846;2.322;2022-09-03T08:06:57;8.25;;;8.25;;
62479;SDS011;48526;48.846;2.322;2022-09-03T08:09:23;10.00;;;7.25;;
62479;SDS011;48526;48.846;2.322;2022-09-03T08:11:49;7.75;;;7.75;;
62479;SDS011;48526;48.846;2.322;2022-09-03T08:14:16;8.75;;;8.75;;
62479;SDS011;48526;48.846;2.322;2022-09-03T08:16:45;8.25;;;8.25;;
62479;SDS011;48526;48.846;2.322;2022-09-03T08:19:14;8.50;;;8.50;;
62479;SDS011;48526;48.846;2.322;2022-09-03T08:21:42;8.25;;;7.75;;
62479;SDS011;48526;48.846;2.322;2022-09-03T08:27:41;9.25;;;9.25;;
62479;SDS011;48526;48.846;2.322;2022-09-03T08:30:06;9.25;;;8.00;;
62479;SDS011;48526;48.846;2.322;2022-09-03T08:32:35;10.50;;;9.00;;
62479;SDS011;48526;48.846;2.322;2022-09-03T08:35:01;10.00;;;9.50;;
62479;SDS011;48526;48.846;2.322;2022-09-03T08:37:27;6.75;;;6.75;;
62479;SDS011;48526;48.846;2.322;2022-09-03T08:39:54;10.25;;;9.00;;
62479;SDS011;48526;48.846;2.322;2022-09-03T08:45:15;8.75;;;8.50;;
62479;SDS011;48526;48.846;2.322;2022-09-03T08:47:44;6.25;;;6.25;;
62479;SDS011;48526;48.846;2.322;2022-09-03T08:50:21;9.00;;;8.00;;
62479;SDS011;48526;48.846;2.322;2022-09-03T08:52:51;7.75;;;7.50;;
62479;SDS011;48526;48.846;2.322;2022-09-03T08:58:18;8.25;;;8.25;;
62479;SDS011;48526;48.846;2.322;2022-09-03T09:01:03;9.75;;;9.00;;
62479;SDS011;48526;48.846;2.322;2022-09-03T09:06:42;7.50;;;7.50;;
62479;SDS011;48526;48.846;2.322;2022-09-03T09:11:39;7.00;;;7.00;;
62479;SDS011;48526;48.846;2.322;2022-09-03T09:19:41;7.00;;;7.00;;
62479;SDS011;48526;48.846;2.322;2022-09-03T09:22:39;7.25;;;5.50;;
62479;SDS011;48526;48.846;2.322;2022-09-03T09:25:16;5.25;;;5.00;;
62479;SDS011;48526;48.846;2.322;2022-09-03T09:27:49;7.25;;;6.50;;
62479;SDS011;48526;48.846;2.322;2022-09-03T09:30:18;9.00;;;9.00;;
62479;SDS011;48526;48.846;2.322;2022-09-03T09:32:43;7.25;;;6.00;;
62479;SDS011;48526;48.846;2.322;2022-09-03T09:35:11;7.00;;;5.50;;
62479;SDS011;48526;48.846;2.322;2022-09-03T09:40:33;3.50;;;3.50;;
62479;SDS011;48526;48.846;2.322;2022-09-03T09:45:30;5.75;;;5.75;;
62479;SDS011;48526;48.846;2.322;2022-09-03T09:47:59;4.00;;;4.00;;
62479;SDS011;48526;48.846;2.322;2022-09-03T09:50:25;5.75;;;5.00;;
62479;SDS011;48526;48.846;2.322;2022-09-03T09:53:05;5.00;;;5.00;;
62479;SDS011;48526;48.846;2.322;2022-09-03T09:55:32;4.50;;;4.50;;
62479;SDS011;48526;48.846;2.322;2022-09-03T09:58:05;7.00;;;7.00;;
62479;SDS011;48526;48.846;2.322;2022-09-03T10:00:36;7.00;;;5.50;;
62479;SDS011;48526;48.846;2.322;2022-09-03T10:03:05;4.50;;;4.00;;
62479;SDS011;48526;48.846;2.322;2022-09-03T10:05:31;5.50;;;5.50;;
62479;SDS011;48526;48.846;2.322;2022-09-03T10:07:59;4.00;;;4.00;;
62479;SDS011;48526;48.846;2.322;2022-09-03T10:10:28;5.50;;;5.00;;
62479;SDS011;48526;48.846;2.322;2022-09-03T10:13:15;3.50;;;3.25;;
62479;SDS011;48526;48.846;2.322;2022-09-03T10:18:40;6.00;;;5.00;;
62479;SDS011;48526;48.846;2.322;2022-09-03T10:26:21;6.50;;;5.00;;
62479;SDS011;48526;48.846;2.322;2022-09-03T10:28:55;6.25;;;6.00;;
62479;SDS011;48526;48.846;2.322;2022-09-03T10:31:40;4.75;;;4.75;;
62479;SDS011;48526;48.846;2.322;2022-09-03T10:37:10;9.50;;;6.00;;
62479;SDS011;48526;48.846;2.322;2022-09-03T10:42:42;5.50;;;4.75;;
62479;SDS011;48526;48.846;2.322;2022-09-03T10:45:17;5.25;;;3.75;;
62479;SDS011;48526;48.846;2.322;2022-09-03T10:50:47;6.00;;;6.00;;
62479;SDS011;48526;48.846;2.322;2022-09-03T10:55:51;5.00;;;5.00;;
62479;SDS011;48526;48.846;2.322;2022-09-03T11:01:25;2.50;;;2.50;;
62479;SDS011;48526;48.846;2.322;2022-09-03T11:04:21;6.75;;;6.75;;
62479;SDS011;48526;48.846;2.322;2022-09-03T11:06:54;7.00;;;6.00;;
62479;SDS011;48526;48.846;2.322;2022-09-03T11:09:34;7.75;;;7.00;;
62479;SDS011;48526;48.846;2.322;2022-09-03T11:12:08;5.25;;;5.25;;
62479;SDS011;48526;48.846;2.322;2022-09-03T11:14:58;6.25;;;6.25;;
62479;SDS011;48526;48.846;2.322;2022-09-03T11:17:31;5.75;;;5.75;;
62479;SDS011;48526;48.846;2.322;2022-09-03T11:22:38;5.25;;;4.25;;
62479;SDS011;48526;48.846;2.322;2022-09-03T11:25:06;5.50;;;5.50;;
62479;SDS011;48526;48.846;2.322;2022-09-03T11:30:06;6.00;;;5.00;;
62479;SDS011;48526;48.846;2.322;2022-09-03T11:38:03;8.00;;;5.75;;
62479;SDS011;48526;48.846;2.322;2022-09-03T11:40:36;6.50;;;6.50;;
62479;SDS011;48526;48.846;2.322;2022-09-03T11:43:07;5.00;;;5.00;;
62479;SDS011;48526;48.846;2.322;2022-09-03T11:45:37;5.00;;;5.00;;
62479;SDS011;48526;48.846;2.322;2022-09-03T11:48:15;4.25;;;4.25;;
62479;SDS011;48526;48.846;2.322;2022-09-03T11:50:50;3.50;;;3.50;;
62479;SDS011;48526;48.846;2.322;2022-09-03T11:55:54;6.00;;;5.00;;
62479;SDS011;48526;48.846;2.322;2022-09-03T11:58:29;5.75;;;5.75;;
62479;SDS011;48526;48.846;2.322;2022-09-03T12:01:04;5.25;;;4.75;;
62479;SDS011;48526;48.846;2.322;2022-09-03T12:03:38;5.25;;;5.25;;
62479;SDS011;48526;48.846;2.322;2022-09-03T12:06:20;6.00;;;5.00;;
62479;SDS011;48526;48.846;2.322;2022-09-03T12:11:48;4.75;;;4.75;;
62479;SDS011;48526;48.846;2.322;2022-09-03T12:17:43;2.25;;;2.25;;
62479;SDS011;48526;48.846;2.322;2022-09-03T12:20:36;2.75;;;2.75;;
62479;SDS011;48526;48.846;2.322;2022-09-03T12:23:02;4.50;;;3.50;;
62479;SDS011;48526;48.846;2.322;2022-09-03T12:25:28;2.75;;;2.25;;
62479;SDS011;48526;48.846;2.322;2022-09-03T12:27:53;3.00;;;3.00;;
62479;SDS011;48526;48.846;2.322;2022-09-03T12:30:21;3.25;;;3.25;;
62479;SDS011;48526;48.846;2.322;2022-09-03T12:32:47;2.00;;;2.00;;
62479;SDS011;48526;48.846;2.322;2022-09-03T12:35:16;3.00;;;2.00;;
62479;SDS011;48526;48.846;2.322;2022-09-03T12:37:43;2.75;;;1.75;;
62479;SDS011;48526;48.846;2.322;2022-09-03T12:40:20;2.00;;;2.00;;
62479;SDS011;48526;48.846;2.322;2022-09-03T12:42:47;2.00;;;2.00;;
62479;SDS011;48526;48.846;2.322;2022-09-03T12:45:13;1.25;;;0.75;;
62479;SDS011;48526;48.846;2.322;2022-09-03T12:47:42;0.50;;;0.50;;
62479;SDS011;48526;48.846;2.322;2022-09-03T12:50:10;2.00;;;2.00;;
62479;SDS011;48526;48.846;2.322;2022-09-03T12:55:25;1.00;;;1.00;;
62479;SDS011;48526;48.846;2.322;2022-09-03T12:57:58;1.00;;;0.25;;
62479;SDS011;48526;48.846;2.322;2022-09-03T13:00:28;2.00;;;2.00;;
62479;SDS011;48526;48.846;2.322;2022-09-03T13:02:57;1.25;;;1.25;;
62479;SDS011;48526;48.846;2.322;2022-09-03T13:08:20;1.25;;;1.25;;
62479;SDS011;48526;48.846;2.322;2022-09-03T13:10:52;1.25;;;1.25;;
62479;SDS011;48526;48.846;2.322;2022-09-03T13:15:55;1.50;;;1.50;;
62479;SDS011;48526;48.846;2.322;2022-09-03T13:21:35;0.75;;;0.75;;
62479;SDS011;48526;48.846;2.322;2022-09-03T13:29:43;1.25;;;0.25;;
62479;SDS011;48526;48.846;2.322;2022-09-03T13:34:50;0.25;;;0.25;;
62479;SDS011;48526;48.846;2.322;2022-09-03T13:37:26;0.25;;;0.00;;
62479;SDS011;48526;48.846;2.322;2022-09-03T13:40:05;1.00;;;1.00;;
62479;SDS011;48526;48.846;2.322;2022-09-03T13:42:40;1.00;;;1.00;;
62479;SDS011;48526;48.846;2.322;2022-09-03T13:47:55;1.00;;;1.00;;
62479;SDS011;48526;48.846;2.322;2022-09-03T13:53:49;1.50;;;1.50;;
62479;SDS011;48526;48.846;2.322;2022-09-03T13:58:55;0.00;;;0.00;;
62479;SDS011;48526;48.846;2.322;2022-09-03T14:01:27;1.00;;;1.00;;
62479;SDS011;48526;48.846;2.322;2022-09-03T14:07:22;0.00;;;0.00;;
62479;SDS011;48526;48.846;2.322;2022-09-03T14:10:05;1.00;;;1.00;;
62479;SDS011;48526;48.846;2.322;2022-09-03T14:15:47;0.25;;;0.25;;
62479;SDS011;48526;48.846;2.322;2022-09-03T14:18:27;1.00;;;1.00;;
62479;SDS011;48526;48.846;2.322;2022-09-03T14:21:06;2.75;;;1.00;;
62479;SDS011;48526;48.846;2.322;2022-09-03T14:26:27;1.00;;;1.00;;
62479;SDS011;48526;48.846;2.322;2022-09-03T14:37:15;2.00;;;2.00;;
62479;SDS011;48526;48.846;2.322;2022-09-03T14:45:56;2.00;;;2.00;;
62479;SDS011;48526;48.846;2.322;2022-09-03T14:48:29;1.00;;;1.00;;
62479;SDS011;48526;48.846;2.322;2022-09-03T14:56:52;3.00;;;1.75;;
62479;SDS011;48526;48.846;2.322;2022-09-03T15:01:45;2.25;;;2.00;;
62479;SDS011;48526;48.846;2.322;2022-09-03T15:07:07;2.00;;;2.00;;
62479;SDS011;48526;48.846;2.322;2022-09-03T15:09:45;3.25;;;3.25;;
62479;SDS011;48526;48.846;2.322;2022-09-03T15:14:59;2.00;;;1.50;;
62479;SDS011;48526;48.846;2.322;2022-09-03T15:20:16;2.00;;;2.00;;
62479;SDS011;48526;48.846;2.322;2022-09-03T15:29:05;2.00;;;2.00;;
62479;SDS011;48526;48.846;2.322;2022-09-03T15:34:30;2.50;;;2.50;;
62479;SDS011;48526;48.846;2.322;2022-09-03T15:37:00;1.50;;;1.50;;
62479;SDS011;48526;48.846;2.322;2022-09-03T15:39:35;3.00;;;3.00;;
62479;SDS011;48526;48.846;2.322;2022-09-03T15:42:09;2.00;;;2.00;;
62479;SDS011;48526;48.846;2.322;2022-09-03T15:44:41;2.50;;;2.50;;
62479;SDS011;48526;48.846;2.322;2022-09-03T15:47:11;4.50;;;3.00;;
62479;SDS011;48526;48.846;2.322;2022-09-03T15:49:59;3.75;;;3.75;;
62479;SDS011;48526;48.846;2.322;2022-09-03T15:52:39;4.75;;;4.00;;
62479;SDS011;48526;48.846;2.322;2022-09-03T15:58:09;4.50;;;4.50;;
62479;SDS011;48526;48.846;2.322;2022-09-03T16:03:36;4.00;;;4.00;;
62479;SDS011;48526;48.846;2.322;2022-09-03T16:06:19;3.00;;;3.00;;
62479;SDS011;48526;48.846;2.322;2022-09-03T16:08:52;5.00;;;4.00;;
62479;SDS011;48526;48.846;2.322;2022-09-03T16:11:33;3.75;;;3.00;;
62479;SDS011;48526;48.846;2.322;2022-09-03T16:16:51;4.25;;;4.00;;
62479;SDS011;48526;48.846;2.322;2022-09-03T16:21:57;5.00;;;5.00;;
62479;SDS011;48526;48.846;2.322;2022-09-03T16:27:03;5.25;;;4.00;;
62479;SDS011;48526;48.846;2.322;2022-09-03T16:29:34;5.25;;;4.00;;
62479;SDS011;48526;48.846;2.322;2022-09-03T16:32:09;6.00;;;4.50;;
62479;SDS011;48526;48.846;2.322;2022-09-03T16:34:52;4.75;;;4.75;;
62479;SDS011;48526;48.846;2.322;2022-09-03T16:40:02;4.50;;;4.50;;
62479;SDS011;48526;48.846;2.322;2022-09-03T16:45:29;6.25;;;5.50;;
62479;SDS011;48526;48.846;2.322;2022-09-03T16:53:23;5.25;;;5.00;;
62479;SDS011;48526;48.846;2.322;2022-09-03T17:04:11;7.25;;;5.75;;
62479;SDS011;48526;48.846;2.322;2022-09-03T17:06:44;4.75;;;4.75;;
62479;SDS011;48526;48.846;2.322;2022-09-03T17:10:13;5.00;;;5.00;;
62479;SDS011;48526;48.846;2.322;2022-09-03T17:12:41;6.75;;;6.00;;
62479;SDS011;48526;48.846;2.322;2022-09-03T17:15:33;5.25;;;4.00;;
62479;SDS011;48526;48.846;2.322;2022-09-03T17:18:15;5.00;;;5.00;;
62479;SDS011;48526;48.846;2.322;2022-09-03T17:26:43;8.25;;;5.75;;
62479;SDS011;48526;48.846;2.322;2022-09-03T17:29:25;8.00;;;8.00;;
62479;SDS011;48526;48.846;2.322;2022-09-03T17:32:30;6.00;;;6.00;;
62479;SDS011;48526;48.846;2.322;2022-09-03T17:43:17;6.75;;;6.75;;
62479;SDS011;48526;48.846;2.322;2022-09-03T17:48:53;8.00;;;5.50;;
62479;SDS011;48526;48.846;2.322;2022-09-03T17:57:01;8.00;;;6.50;;
62479;SDS011;48526;48.846;2.322;2022-09-03T18:05:25;8.50;;;7.75;;
62479;SDS011;48526;48.846;2.322;2022-09-03T18:07:59;9.00;;;7.50;;
62479;SDS011;48526;48.846;2.322;2022-09-03T18:15:51;11.00;;;10.00;;
62479;SDS011;48526;48.846;2.322;2022-09-03T18:18:23;7.75;;;6.75;;
62479;SDS011;48526;48.846;2.322;2022-09-03T18:20:52;7.00;;;7.00;;
62479;SDS011;48526;48.846;2.322;2022-09-03T18:23:53;9.25;;;7.75;;
62479;SDS011;48526;48.846;2.322;2022-09-03T18:26:44;9.25;;;9.00;;
62479;SDS011;48526;48.846;2.322;2022-09-03T18:29:49;10.50;;;9.50;;
62479;SDS011;48526;48.846;2.322;2022-09-03T18:32:42;11.00;;;10.25;;
62479;SDS011;48526;48.846;2.322;2022-09-03T18:35:29;10.25;;;10.25;;
62479;SDS011;48526;48.846;2.322;2022-09-03T18:38:15;9.75;;;9.00;;
62479;SDS011;48526;48.846;2.322;2022-09-03T18:41:08;9.75;;;8.00;;
62479;SDS011;48526;48.846;2.322;2022-09-03T18:44:39;13.50;;;11.50;;
62479;SDS011;48526;48.846;2.322;2022-09-03T18:47:36;11.75;;;11.75;;
62479;SDS011;48526;48.846;2.322;2022-09-03T18:50:33;9.25;;;9.00;;
62479;SDS011;48526;48.846;2.322;2022-09-03T18:56:39;12.00;;;10.00;;
62479;SDS011;48526;48.846;2.322;2022-09-03T19:12:37;11.25;;;11.25;;
62479;SDS011;48526;48.846;2.322;2022-09-03T19:15:46;10.50;;;10.50;;
62479;SDS011;48526;48.846;2.322;2022-09-03T19:19:41;12.75;;;10.00;;
62479;SDS011;48526;48.846;2.322;2022-09-03T19:22:09;15.50;;;12.00;;
62479;SDS011;48526;48.846;2.322;2022-09-03T19:24:58;11.00;;;11.00;;
62479;SDS011;48526;48.846;2.322;2022-09-03T19:33:32;12.50;;;11.75;;
62479;SDS011;48526;48.846;2.322;2022-09-03T19:36:43;10.25;;;10.25;;
62479;SDS011;48526;48.846;2.322;2022-09-03T19:39:48;13.50;;;12.75;;
62479;SDS011;48526;48.846;2.322;2022-09-03T19:48:51;16.75;;;15.75;;
62479;SDS011;48526;48.846;2.322;2022-09-03T19:54:40;14.75;;;14.25;;
62479;SDS011;48526;48.846;2.322;2022-09-03T19:57:24;14.00;;;14.00;;
62479;SDS011;48526;48.846;2.322;2022-09-03T20:00:11;14.00;;;12.25;;
62479;SDS011;48526;48.846;2.322;2022-09-03T20:02:55;15.25;;;13.75;;
62479;SDS011;48526;48.846;2.322;2022-09-03T20:05:41;18.75;;;16.75;;
62479;SDS011;48526;48.846;2.322;2022-09-03T20:08:25;21.50;;;21.50;;
62479;SDS011;48526;48.846;2.322;2022-09-03T20:11:15;28.00;;;20.25;;
62479;SDS011;48526;48.846;2.322;2022-09-03T20:13:42;25.25;;;25.00;;